Turlock, California
Current Conditions -  °F | °C
As of 7:53 AM on Thursday 27 Nov 2014 (Local Time) from KMOD Reporting Station
Haze Haze  
Wind Chill: 45°   Ceiling: Unl
Heat Index: 45°   Visibility: 3mi
Dew Point: 43°   Wind: 3mph
Humidity: 93%   Direction: 110°ESE
Pressure: 30.19"   Gusts: NA
Location:  37.5°N, 120.84°W
Report Text: KMOD 271553Z 11003KT 3SM BR CLR 07/06 A3019 RMK AO2 SLP223 T00720061
Loading
Personal Weather Stations






























Interactive Weather Map New forecast layout! Learn more

10-Day Weather Forecast

Advertisements
Track Severe Weather on mobile